^^
Meteo Knjazevac Station Historical Data
Daily Summary for March 8, 2022 Units:  Both    English   Metric
Daily Weekly Monthly Yearly Custom
  High: Low: Average:
Temperature: 58.3 °F /  14.6 °C 51.3 °F /  10.7 °C 54.4 °F /  12.4 °C
Dew Point: 54.5 °F /  12.5 °C 50.6 °F /  10.3 °C 52.6 °F /  11.4 °C
Humidity: 99% 84% 94%
Wind Speed: 8.1mph /  13km/h - 3.8mph /  6.1km/h
Wind Gust: 9mph /  14.5km/h - -
Wind- - SW
Pressure: 30.24 in /  1023.9 hPa 30.20 in /  1022.6 hPa -
Precipitation: 0.00 in /  0 mm    
Historical Graphs
 
 
Tabular Data for March 8, 2022
Time Temperature Dew Point Pressure Wind Wind Speed Wind Gust Humidity Rainfall Rate (Hourly) solar Conditions
00:04 52.9 °F /  11.6 °C 52.6 °F /  11.4 °C 30.21in /  1022.9hPa NNE 2.3mph /  3.7km/h 3mph /  4.8km/h 99% 0.00in /  0mm 0 W/m2
00:09 52.9 °F /  11.6 °C 52.6 °F /  11.4 °C 30.21in /  1022.9hPa NNE 2.4mph /  3.9km/h 2mph /  3.2km/h 99% 0.00in /  0mm 0 W/m2
00:14 52.9 °F /  11.6 °C 52.6 °F /  11.4 °C 30.21in /  1022.9hPa NNE 1.2mph /  1.9km/h 2mph /  3.2km/h 99% 0.00in /  0mm 0 W/m2
00:19 52.9 °F /  11.6 °C 52.6 °F /  11.4 °C 30.21in /  1022.9hPa North 1.4mph /  2.3km/h 2mph /  3.2km/h 99% 0.00in /  0mm 0 W/m2
00:24 52.8 °F /  11.6 °C 52.5 °F /  11.4 °C 30.21in /  1022.9hPa NNW 1.8mph /  2.9km/h 2mph /  3.2km/h 99% 0.00in /  0mm 0 W/m2
00:29 52.7 °F /  11.5 °C 52.4 °F /  11.3 °C 30.21in /  1022.9hPa Calm   2mph /  3.2km/h 99% 0.00in /  0mm 0 W/m2
00:34 52.7 °F /  11.5 °C 52.4 °F /  11.3 °C 30.21in /  1022.9hPa North 0.7mph /  1.1km/h 0.7mph /  1.1km/h 99% 0.00in /  0mm 0 W/m2
00:39 52.7 °F /  11.5 °C 52.4 °F /  11.3 °C 30.21in /  1022.9hPa North 1.1mph /  1.8km/h 2mph /  3.2km/h 99% 0.00in /  0mm 0 W/m2
00:44 52.7 °F /  11.5 °C 52.4 °F /  11.3 °C 30.21in /  1022.9hPa NNW 1.5mph /  2.4km/h 2mph /  3.2km/h 99% 0.00in /  0mm 0 W/m2
00:49 52.7 °F /  11.5 °C 52.4 °F /  11.3 °C 30.21in /  1022.9hPa NW 2.2mph /  3.5km/h 2mph /  3.2km/h 99% 0.00in /  0mm 0 W/m2
00:54 52.7 °F /  11.5 °C 52.4 °F /  11.3 °C 30.21in /  1022.9hPa NW 0.7mph /  1.1km/h 2mph /  3.2km/h 99% 0.00in /  0mm 0 W/m2
00:59 52.7 °F /  11.5 °C 52.4 °F /  11.3 °C 30.21in /  1022.9hPa NNW 1.7mph /  2.7km/h 1.6mph /  2.6km/h 99% 0.00in /  0mm 0 W/m2
01:04 52.7 °F /  11.5 °C 52.4 °F /  11.3 °C 30.21in /  1022.9hPa North 2.5mph /  4km/h 2mph /  3.2km/h 99% 0.00in /  0mm 0 W/m2
01:09 52.8 °F /  11.6 °C 52.5 °F /  11.4 °C 30.21in /  1022.9hPa NNE 2.3mph /  3.7km/h 3mph /  4.8km/h 99% 0.00in /  0mm 0 W/m2
01:14 52.8 °F /  11.6 °C 52.5 °F /  11.4 °C 30.21in /  1022.9hPa NNE 3.8mph /  6.1km/h 3.4mph /  5.5km/h 99% 0.00in /  0mm 0 W/m2
01:19 52.7 °F /  11.5 °C 52.4 °F /  11.3 °C 30.21in /  1022.9hPa NE 3.6mph /  5.8km/h 5mph /  8km/h 99% 0.00in /  0mm 0 W/m2
01:24 52.7 °F /  11.5 °C 52.4 °F /  11.3 °C 30.21in /  1022.9hPa NE 0.6mph /  1km/h 4mph /  6.4km/h 99% 0.00in /  0mm 0 W/m2
01:29 52.7 °F /  11.5 °C 52.4 °F /  11.3 °C 30.21in /  1022.9hPa NNE 1.6mph /  2.6km/h 1.3mph /  2.1km/h 99% 0.00in /  0mm 0 W/m2
01:34 52.7 °F /  11.5 °C 52.4 °F /  11.3 °C 30.21in /  1022.9hPa North 1.5mph /  2.4km/h 2mph /  3.2km/h 99% 0.00in /  0mm 0 W/m2
01:39 52.7 °F /  11.5 °C 52.4 °F /  11.3 °C 30.21in /  1022.9hPa NNW 1.7mph /  2.7km/h 2mph /  3.2km/h 99% 0.00in /  0mm 0 W/m2
01:44 52.6 °F /  11.4 °C 52.3 °F /  11.3 °C 30.21in /  1022.9hPa NNW 1.4mph /  2.3km/h 2mph /  3.2km/h 99% 0.00in /  0mm 0 W/m2
01:49 52.7 °F /  11.5 °C 52.4 °F /  11.3 °C 30.21in /  1022.9hPa NNW 1.4mph /  2.3km/h 2mph /  3.2km/h 99% 0.00in /  0mm 0 W/m2
01:54 52.7 °F /  11.5 °C 52.4 °F /  11.3 °C 30.21in /  1022.9hPa NW 1.9mph /  3.1km/h 2mph /  3.2km/h 99% 0.00in /  0mm 0 W/m2
01:59 52.6 °F /  11.4 °C 52.3 °F /  11.3 °C 30.21in /  1022.9hPa NW 1.2mph /  1.9km/h 2mph /  3.2km/h 99% 0.00in /  0mm 0 W/m2
02:04 52.6 °F /  11.4 °C 52.3 °F /  11.3 °C 30.21in /  1022.9hPa NW 0.8mph /  1.3km/h 2mph /  3.2km/h 99% 0.00in /  0mm 0 W/m2
02:09 52.7 °F /  11.5 °C 52.4 °F /  11.3 °C 30.21in /  1022.9hPa WNW 2.6mph /  4.2km/h 2mph /  3.2km/h 99% 0.00in /  0mm 0 W/m2
02:14 52.7 °F /  11.5 °C 52.4 °F /  11.3 °C 30.21in /  1022.9hPa WSW 2.2mph /  3.5km/h 3mph /  4.8km/h 99% 0.00in /  0mm 0 W/m2
02:19 52.6 °F /  11.4 °C 52.3 °F /  11.3 °C 30.21in /  1022.9hPa West 2.1mph /  3.4km/h 2mph /  3.2km/h 99% 0.00in /  0mm 0 W/m2
02:24 52.5 °F /  11.4 °C 52.2 °F /  11.2 °C 30.21in /  1022.9hPa WNW 2.6mph /  4.2km/h 3mph /  4.8km/h 99% 0.00in /  0mm 0 W/m2
02:29 52.6 °F /  11.4 °C 52.3 °F /  11.3 °C 30.21in /  1022.9hPa West 3.3mph /  5.3km/h 3mph /  4.8km/h 99% 0.00in /  0mm 0 W/m2
02:34 52.6 °F /  11.4 °C 52.3 °F /  11.3 °C 30.21in /  1022.9hPa West 3mph /  4.8km/h 3mph /  4.8km/h 99% 0.00in /  0mm 0 W/m2
02:39 52.6 °F /  11.4 °C 52.3 °F /  11.3 °C 30.21in /  1022.9hPa West 3.3mph /  5.3km/h 3mph /  4.8km/h 99% 0.00in /  0mm 0 W/m2
02:44 52.7 °F /  11.5 °C 52.4 °F /  11.3 °C 30.21in /  1022.9hPa West 3.7mph /  6km/h 4mph /  6.4km/h 99% 0.00in /  0mm 0 W/m2
02:49 52.7 °F /  11.5 °C 52.4 °F /  11.3 °C 30.21in /  1022.9hPa WNW 3.3mph /  5.3km/h 5mph /  8km/h 99% 0.00in /  0mm 0 W/m2
02:54 52.7 °F /  11.5 °C 52.4 °F /  11.3 °C 30.21in /  1022.9hPa WNW 3.4mph /  5.5km/h 4mph /  6.4km/h 99% 0.00in /  0mm 0 W/m2
02:59 52.7 °F /  11.5 °C 52.4 °F /  11.3 °C 30.21in /  1022.9hPa WNW 3.2mph /  5.1km/h 4mph /  6.4km/h 99% 0.00in /  0mm 0 W/m2
03:04 52.7 °F /  11.5 °C 52.4 °F /  11.3 °C 30.21in /  1022.9hPa WNW 3mph /  4.8km/h 4mph /  6.4km/h 99% 0.00in /  0mm 0 W/m2
03:09 52.6 °F /  11.4 °C 52.3 °F /  11.3 °C 30.21in /  1022.9hPa West 2.1mph /  3.4km/h 4mph /  6.4km/h 99% 0.00in /  0mm 0 W/m2
03:14 52.6 °F /  11.4 °C 52.3 °F /  11.3 °C 30.21in /  1022.9hPa West 2.4mph /  3.9km/h 2mph /  3.2km/h 99% 0.00in /  0mm 0 W/m2
03:19 52.6 °F /  11.4 °C 52.3 °F /  11.3 °C 30.21in /  1022.9hPa WNW 2.6mph /  4.2km/h 3mph /  4.8km/h 99% 0.00in /  0mm 0 W/m2
03:24 52.5 °F /  11.4 °C 52.2 °F /  11.2 °C 30.21in /  1022.9hPa WNW 3mph /  4.8km/h 3mph /  4.8km/h 99% 0.00in /  0mm 0 W/m2
03:29 52.5 °F /  11.4 °C 52.2 °F /  11.2 °C 30.21in /  1022.9hPa West 3.4mph /  5.5km/h 4mph /  6.4km/h 99% 0.00in /  0mm 0 W/m2
03:34 52.5 °F /  11.4 °C 52.2 °F /  11.2 °C 30.21in /  1022.9hPa West 3.5mph /  5.6km/h 4mph /  6.4km/h 99% 0.00in /  0mm 0 W/m2
03:39 52.5 °F /  11.4 °C 52.2 °F /  11.2 °C 30.21in /  1022.9hPa West 3.2mph /  5.1km/h 4mph /  6.4km/h 99% 0.00in /  0mm 0 W/m2
03:44 52.4 °F /  11.3 °C 52.1 °F /  11.2 °C 30.21in /  1022.9hPa West 2.7mph /  4.3km/h 5mph /  8km/h 99% 0.00in /  0mm 0 W/m2
03:49 52.3 °F /  11.3 °C 52.1 °F /  11.2 °C 30.20in /  1022.6hPa West 2.2mph /  3.5km/h 3mph /  4.8km/h 99% 0.00in /  0mm 0 W/m2
03:54 52.3 °F /  11.3 °C 52.1 °F /  11.2 °C 30.20in /  1022.6hPa West 2.8mph /  4.5km/h 3mph /  4.8km/h 99% 0.00in /  0mm 0 W/m2
03:59 52.3 °F /  11.3 °C 52.1 °F /  11.2 °C 30.20in /  1022.6hPa WSW 2.4mph /  3.9km/h 3mph /  4.8km/h 99% 0.00in /  0mm 0 W/m2
04:04 52.3 °F /  11.3 °C 52.1 °F /  11.2 °C 30.20in /  1022.6hPa West 3.2mph /  5.1km/h 3.1mph /  5km/h 99% 0.00in /  0mm 0 W/m2
04:09 52.3 °F /  11.3 °C 52.1 °F /  11.2 °C 30.21in /  1022.9hPa West 4mph /  6.4km/h 4mph /  6.4km/h 99% 0.00in /  0mm 0 W/m2
04:14 52.3 °F /  11.3 °C 52.1 °F /  11.2 °C 30.21in /  1022.9hPa West 4.5mph /  7.2km/h 5mph /  8km/h 99% 0.00in /  0mm 0 W/m2
04:19 52.2 °F /  11.2 °C 52 °F /  11.1 °C 30.21in /  1022.9hPa West 4.6mph /  7.4km/h 5mph /  8km/h 99% 0.00in /  0mm 0 W/m2
04:24 52.2 °F /  11.2 °C 51.9 °F /  11.1 °C 30.21in /  1022.9hPa West 5.2mph /  8.4km/h 5mph /  8km/h 99% 0.00in /  0mm 0 W/m2
04:29 52.2 °F /  11.2 °C 51.9 °F /  11.1 °C 30.21in /  1022.9hPa West 5mph /  8km/h 6mph /  9.7km/h 99% 0.00in /  0mm 0 W/m2
04:34 52.2 °F /  11.2 °C 51.9 °F /  11.1 °C 30.21in /  1022.9hPa WSW 6.9mph /  11.1km/h 7mph /  11.3km/h 99% 0.00in /  0mm 0 W/m2
04:39 52.1 °F /  11.2 °C 51.8 °F /  11 °C 30.21in /  1022.9hPa WSW 8.1mph /  13km/h 9mph /  14.5km/h 99% 0.00in /  0mm 0 W/m2
04:44 52 °F /  11.1 °C 51.7 °F /  10.9 °C 30.21in /  1022.9hPa SW 6.8mph /  10.9km/h 9mph /  14.5km/h 99% 0.00in /  0mm 0 W/m2
04:49 51.9 °F /  11.1 °C 51.6 °F /  10.9 °C 30.21in /  1022.9hPa SW 6mph /  9.7km/h 7mph /  11.3km/h 99% 0.00in /  0mm 0 W/m2
04:54 51.8 °F /  11 °C 51.5 °F /  10.8 °C 30.21in /  1022.9hPa SW 5.4mph /  8.7km/h 6mph /  9.7km/h 99% 0.00in /  0mm 0 W/m2
04:59 51.8 °F /  11 °C 51.5 °F /  10.8 °C 30.21in /  1022.9hPa WSW 4.4mph /  7.1km/h 6mph /  9.7km/h 99% 0.00in /  0mm 0 W/m2
05:04 51.8 °F /  11 °C 51.5 °F /  10.8 °C 30.21in /  1022.9hPa WSW 4.4mph /  7.1km/h 5mph /  8km/h 99% 0.00in /  0mm 0 W/m2
05:09 51.8 °F /  11 °C 51.5 °F /  10.8 °C 30.21in /  1022.9hPa SW 4.6mph /  7.4km/h 5mph /  8km/h 99% 0.00in /  0mm 0 W/m2
05:14 51.8 °F /  11 °C 51.5 °F /  10.8 °C 30.21in /  1022.9hPa SW 5.4mph /  8.7km/h 6mph /  9.7km/h 99% 0.00in /  0mm 0 W/m2
05:19 51.8 °F /  11 °C 51.5 °F /  10.8 °C 30.21in /  1022.9hPa SW 5.4mph /  8.7km/h 6mph /  9.7km/h 99% 0.00in /  0mm 0 W/m2
05:24 51.8 °F /  11 °C 51.5 °F /  10.8 °C 30.21in /  1022.9hPa WSW 4.2mph /  6.8km/h 6mph /  9.7km/h 99% 0.00in /  0mm 0 W/m2
05:29 51.8 °F /  11 °C 51.5 °F /  10.8 °C 30.21in /  1022.9hPa WSW 3.9mph /  6.3km/h 5mph /  8km/h 99% 0.00in /  0mm 0 W/m2
05:34 51.8 °F /  11 °C 51.5 °F /  10.8 °C 30.21in /  1022.9hPa WSW 4.2mph /  6.8km/h 5mph /  8km/h 99% 0.00in /  0mm 0 W/m2
05:39 51.8 °F /  11 °C 51.5 °F /  10.8 °C 30.21in /  1022.9hPa West 4.8mph /  7.7km/h 5mph /  8km/h 99% 0.00in /  0mm 0 W/m2
05:44 51.8 °F /  11 °C 51.5 °F /  10.8 °C 30.21in /  1022.9hPa WSW 4.2mph /  6.8km/h 6mph /  9.7km/h 99% 0.00in /  0mm 0 W/m2
05:49 51.7 °F /  10.9 °C 51.4 °F /  10.8 °C 30.21in /  1022.9hPa WSW 4mph /  6.4km/h 5mph /  8km/h 99% 0.00in /  0mm 0 W/m2
05:54 51.6 °F /  10.9 °C 51.3 °F /  10.7 °C 30.21in /  1022.9hPa WSW 4.4mph /  7.1km/h 5mph /  8km/h 99% 0.00in /  0mm 0 W/m2
05:59 51.6 °F /  10.9 °C 51.3 °F /  10.7 °C 30.21in /  1022.9hPa WSW 3.5mph /  5.6km/h 6mph /  9.7km/h 99% 0.00in /  0mm 0 W/m2
06:04 51.6 °F /  10.9 °C 51.3 °F /  10.7 °C 30.21in /  1022.9hPa WSW 4mph /  6.4km/h 4mph /  6.4km/h 99% 0.00in /  0mm 0 W/m2
06:09 51.6 °F /  10.9 °C 51.3 °F /  10.7 °C 30.21in /  1022.9hPa WSW 4mph /  6.4km/h 5mph /  8km/h 99% 0.00in /  0mm 0 W/m2
06:14 51.5 °F /  10.8 °C 51.3 °F /  10.7 °C 30.21in /  1022.9hPa WSW 4.8mph /  7.7km/h 5mph /  8km/h 99% 0.00in /  0mm 1 W/m2
06:19 51.4 °F /  10.8 °C 51.2 °F /  10.7 °C 30.21in /  1022.9hPa WSW 5.2mph /  8.4km/h 6mph /  9.7km/h 99% 0.00in /  0mm 1 W/m2
06:24 51.4 °F /  10.8 °C 51.2 °F /  10.7 °C 30.22in /  1023.2hPa SW 6.3mph /  10.1km/h 6mph /  9.7km/h 99% 0.00in /  0mm 1 W/m2
06:29 51.4 °F /  10.8 °C 51.2 °F /  10.7 °C 30.22in /  1023.2hPa SW 6.6mph /  10.6km/h 7mph /  11.3km/h 99% 0.00in /  0mm 2 W/m2
06:34 51.3 °F /  10.7 °C 51.1 °F /  10.6 °C 30.22in /  1023.2hPa SW 6.1mph /  9.8km/h 7mph /  11.3km/h 99% 0.00in /  0mm 3 W/m2
06:39 51.4 °F /  10.8 °C 51.1 °F /  10.6 °C 30.22in /  1023.2hPa SW 5.3mph /  8.5km/h 7mph /  11.3km/h 99% 0.00in /  0mm 7 W/m2
06:44 51.3 °F /  10.7 °C 51.1 °F /  10.6 °C 30.22in /  1023.2hPa SW 4.5mph /  7.2km/h 6mph /  9.7km/h 99% 0.00in /  0mm 7 W/m2
06:49 51.3 °F /  10.7 °C 51 °F /  10.6 °C 30.22in /  1023.2hPa SW 5.4mph /  8.7km/h 5mph /  8km/h 99% 0.00in /  0mm 10 W/m2
06:54 51.3 °F /  10.7 °C 51.1 °F /  10.6 °C 30.22in /  1023.2hPa SW 4mph /  6.4km/h 6mph /  9.7km/h 99% 0.00in /  0mm 13 W/m2
06:59 51.4 °F /  10.8 °C 51.2 °F /  10.7 °C 30.22in /  1023.2hPa SW 3.4mph /  5.5km/h 5mph /  8km/h 99% 0.00in /  0mm 16 W/m2
07:04 51.4 °F /  10.8 °C 51.2 °F /  10.7 °C 30.22in /  1023.2hPa SW 3.9mph /  6.3km/h 5mph /  8km/h 99% 0.00in /  0mm 16 W/m2
07:09 51.4 °F /  10.8 °C 51.2 °F /  10.7 °C 30.23in /  1023.6hPa SW 4.1mph /  6.6km/h 5mph /  8km/h 99% 0.00in /  0mm 13 W/m2
07:14 51.4 °F /  10.8 °C 51.2 °F /  10.7 °C 30.23in /  1023.6hPa SW 4mph /  6.4km/h 5mph /  8km/h 99% 0.00in /  0mm 12 W/m2
07:19 51.4 °F /  10.8 °C 51.2 °F /  10.7 °C 30.23in /  1023.6hPa SW 4.8mph /  7.7km/h 5mph /  8km/h 99% 0.00in /  0mm 18 W/m2
07:24 51.4 °F /  10.8 °C 51.2 °F /  10.7 °C 30.23in /  1023.6hPa SW 5.1mph /  8.2km/h 6mph /  9.7km/h 99% 0.00in /  0mm 25 W/m2
07:29 51.5 °F /  10.8 °C 51.3 °F /  10.7 °C 30.23in /  1023.6hPa SW 5.1mph /  8.2km/h 6mph /  9.7km/h 99% 0.00in /  0mm 28 W/m2
07:34 51.6 °F /  10.9 °C 51.3 °F /  10.7 °C 30.23in /  1023.6hPa SW 4.6mph /  7.4km/h 6mph /  9.7km/h 99% 0.00in /  0mm 32 W/m2
07:39 51.6 °F /  10.9 °C 51.3 °F /  10.7 °C 30.23in /  1023.6hPa SW 3.5mph /  5.6km/h 6mph /  9.7km/h 99% 0.00in /  0mm 34 W/m2
07:44 51.7 °F /  10.9 °C 51.4 °F /  10.8 °C 30.23in /  1023.6hPa SW 3.2mph /  5.1km/h 4mph /  6.4km/h 99% 0.00in /  0mm 40 W/m2
07:49 51.8 °F /  11 °C 51.5 °F /  10.8 °C 30.23in /  1023.6hPa SW 2.8mph /  4.5km/h 3mph /  4.8km/h 99% 0.00in /  0mm 45 W/m2
07:54 51.9 °F /  11.1 °C 51.6 °F /  10.9 °C 30.23in /  1023.6hPa SW 2.7mph /  4.3km/h 3mph /  4.8km/h 99% 0.00in /  0mm 60 W/m2
07:59 52 °F /  11.1 °C 51.7 °F /  10.9 °C 30.23in /  1023.6hPa WSW 2.3mph /  3.7km/h 3mph /  4.8km/h 99% 0.00in /  0mm 72 W/m2
08:04 52.2 °F /  11.2 °C 51.8 °F /  11 °C 30.23in /  1023.6hPa SW 2.6mph /  4.2km/h 3mph /  4.8km/h 99% 0.00in /  0mm 69 W/m2
08:09 52.2 °F /  11.2 °C 52 °F /  11.1 °C 30.23in /  1023.6hPa SW 3.1mph /  5km/h 3mph /  4.8km/h 99% 0.00in /  0mm 67 W/m2
08:14 52.3 °F /  11.3 °C 52.1 °F /  11.2 °C 30.23in /  1023.6hPa SSW 3.1mph /  5km/h 3mph /  4.8km/h 99% 0.00in /  0mm 73 W/m2
08:19 52.3 °F /  11.3 °C 52.1 °F /  11.2 °C 30.23in /  1023.6hPa SSW 2.7mph /  4.3km/h 3mph /  4.8km/h 99% 0.00in /  0mm 79 W/m2
08:24 52.5 °F /  11.4 °C 52.2 °F /  11.2 °C 30.23in /  1023.6hPa SW 3.6mph /  5.8km/h 5mph /  8km/h 99% 0.00in /  0mm 83 W/m2
08:29 52.6 °F /  11.4 °C 52.3 °F /  11.3 °C 30.23in /  1023.6hPa SW 3.3mph /  5.3km/h 4mph /  6.4km/h 99% 0.00in /  0mm 96 W/m2
08:34 52.8 °F /  11.6 °C 52.5 °F /  11.4 °C 30.23in /  1023.6hPa SW 2.8mph /  4.5km/h 4mph /  6.4km/h 99% 0.00in /  0mm 105 W/m2
08:39 52.9 °F /  11.6 °C 52.6 °F /  11.4 °C 30.23in /  1023.6hPa WSW 2.2mph /  3.5km/h 3mph /  4.8km/h 99% 0.00in /  0mm 109 W/m2
08:44 53.1 °F /  11.7 °C 52.9 °F /  11.6 °C 30.23in /  1023.6hPa SW 2.3mph /  3.7km/h 3mph /  4.8km/h 99% 0.00in /  0mm 108 W/m2
08:49 53.2 °F /  11.8 °C 53 °F /  11.7 °C 30.23in /  1023.6hPa WSW 3.3mph /  5.3km/h 3mph /  4.8km/h 99% 0.00in /  0mm 106 W/m2
08:54 53.4 °F /  11.9 °C 53.1 °F /  11.7 °C 30.23in /  1023.6hPa WSW 3.4mph /  5.5km/h 3mph /  4.8km/h 99% 0.00in /  0mm 107 W/m2
08:59 53.5 °F /  11.9 °C 53.2 °F /  11.8 °C 30.23in /  1023.6hPa WSW 4.5mph /  7.2km/h 5mph /  8km/h 99% 0.00in /  0mm 110 W/m2
09:04 53.6 °F /  12 °C 53.3 °F /  11.8 °C 30.23in /  1023.6hPa SW 4.7mph /  7.6km/h 6mph /  9.7km/h 99% 0.00in /  0mm 112 W/m2
09:09 53.6 °F /  12 °C 53.2 °F /  11.8 °C 30.23in /  1023.6hPa SW 5.7mph /  9.2km/h 6mph /  9.7km/h 98.6% 0.00in /  0mm 113 W/m2
09:14 53.5 °F /  11.9 °C 53 °F /  11.7 °C 30.23in /  1023.6hPa SW 4.9mph /  7.9km/h 7mph /  11.3km/h 98% 0.00in /  0mm 114 W/m2
09:19 53.6 °F /  12 °C 53 °F /  11.7 °C 30.23in /  1023.6hPa SW 5.7mph /  9.2km/h 5.1mph /  8.2km/h 98% 0.00in /  0mm 117 W/m2
09:24 53.6 °F /  12 °C 53 °F /  11.7 °C 30.23in /  1023.6hPa SW 6.2mph /  10km/h 7mph /  11.3km/h 98% 0.00in /  0mm 130 W/m2
09:29 53.6 °F /  12 °C 53 °F /  11.7 °C 30.23in /  1023.6hPa SW 6.5mph /  10.5km/h 7mph /  11.3km/h 98% 0.00in /  0mm 136 W/m2
09:34 53.8 °F /  12.1 °C 53.2 °F /  11.8 °C 30.23in /  1023.6hPa SW 6.3mph /  10.1km/h 7mph /  11.3km/h 98% 0.00in /  0mm 162 W/m2
09:39 54 °F /  12.2 °C 53.3 °F /  11.8 °C 30.24in /  1023.9hPa SW 6.2mph /  10km/h 7mph /  11.3km/h 98% 0.00in /  0mm 167 W/m2
09:44 54.1 °F /  12.3 °C 53 °F /  11.7 °C 30.24in /  1023.9hPa SW 6.9mph /  11.1km/h 8mph /  12.9km/h 96.2% 0.00in /  0mm 167 W/m2
09:49 54.2 °F /  12.3 °C 53.1 °F /  11.7 °C 30.23in /  1023.6hPa SW 6.7mph /  10.8km/h 8mph /  12.9km/h 96% 0.00in /  0mm 174 W/m2
09:54 54.4 °F /  12.4 °C 53.3 °F /  11.8 °C 30.23in /  1023.6hPa SW 5.8mph /  9.3km/h 8mph /  12.9km/h 96% 0.00in /  0mm 175 W/m2
09:59 54.6 °F /  12.6 °C 53.4 °F /  11.9 °C 30.24in /  1023.9hPa SW 6mph /  9.7km/h 6mph /  9.7km/h 95.8% 0.00in /  0mm 175 W/m2
10:04 54.7 °F /  12.6 °C 53.3 °F /  11.8 °C 30.24in /  1023.9hPa SW 4.6mph /  7.4km/h 7mph /  11.3km/h 95% 0.00in /  0mm 172 W/m2
10:09 54.8 °F /  12.7 °C 53.4 °F /  11.9 °C 30.23in /  1023.6hPa SW 5.1mph /  8.2km/h 6mph /  9.7km/h 95% 0.00in /  0mm 172 W/m2
10:14 54.9 °F /  12.7 °C 53.5 °F /  11.9 °C 30.23in /  1023.6hPa SW 3.9mph /  6.3km/h 6mph /  9.7km/h 95% 0.00in /  0mm 161 W/m2
10:19 55 °F /  12.8 °C 53.6 °F /  12 °C 30.23in /  1023.6hPa SW 4.3mph /  6.9km/h 5mph /  8km/h 95% 0.00in /  0mm 149 W/m2
10:24 55.1 °F /  12.8 °C 53.7 °F /  12.1 °C 30.24in /  1023.9hPa SW 4.3mph /  6.9km/h 5mph /  8km/h 95% 0.00in /  0mm 155 W/m2
10:29 55.2 °F /  12.9 °C 53.5 °F /  11.9 °C 30.24in /  1023.9hPa SW 4.4mph /  7.1km/h 5mph /  8km/h 94.1% 0.00in /  0mm 168 W/m2
10:34 55.3 °F /  12.9 °C 53.6 °F /  12 °C 30.23in /  1023.6hPa SW 3.4mph /  5.5km/h 5mph /  8km/h 94% 0.00in /  0mm 191 W/m2
10:39 55.7 °F /  13.2 °C 54 °F /  12.2 °C 30.23in /  1023.6hPa SW 3.7mph /  6km/h 4mph /  6.4km/h 94% 0.00in /  0mm 191 W/m2
10:44 55.8 °F /  13.2 °C 54.1 °F /  12.3 °C 30.23in /  1023.6hPa SSW 3.5mph /  5.6km/h 5mph /  8km/h 94% 0.00in /  0mm 187 W/m2
10:49 55.9 °F /  13.3 °C 54.1 °F /  12.3 °C 30.23in /  1023.6hPa SSW 4.3mph /  6.9km/h 4mph /  6.4km/h 93.8% 0.00in /  0mm 164 W/m2
10:54 55.9 °F /  13.3 °C 53.9 °F /  12.2 °C 30.23in /  1023.6hPa SSW 5mph /  8km/h 5mph /  8km/h 93% 0.00in /  0mm 149 W/m2
10:59 56.1 °F /  13.4 °C 54.1 °F /  12.3 °C 30.23in /  1023.6hPa SW 5.3mph /  8.5km/h 6mph /  9.7km/h 93% 0.00in /  0mm 137 W/m2
11:04 55.9 °F /  13.3 °C 53.9 °F /  12.2 °C 30.23in /  1023.6hPa WSW 5.5mph /  8.9km/h 6mph /  9.7km/h 93% 0.00in /  0mm 131 W/m2
11:09 55.9 °F /  13.3 °C 53.9 °F /  12.2 °C 30.23in /  1023.6hPa SW 6.2mph /  10km/h 6mph /  9.7km/h 93% 0.00in /  0mm 145 W/m2
11:14 55.8 °F /  13.2 °C 53.8 °F /  12.1 °C 30.23in /  1023.6hPa SW 7.1mph /  11.4km/h 7mph /  11.3km/h 93% 0.00in /  0mm 171 W/m2
11:19 55.9 °F /  13.3 °C 53.9 °F /  12.2 °C 30.23in /  1023.6hPa SW 6.2mph /  10km/h 8mph /  12.9km/h 93% 0.00in /  0mm 178 W/m2
11:24 56 °F /  13.3 °C 54 °F /  12.2 °C 30.23in /  1023.6hPa SW 5.1mph /  8.2km/h 6mph /  9.7km/h 93% 0.00in /  0mm 178 W/m2
11:29 56.2 °F /  13.4 °C 54.2 °F /  12.3 °C 30.23in /  1023.6hPa SW 4.7mph /  7.6km/h 6mph /  9.7km/h 93% 0.00in /  0mm 179 W/m2
11:34 56.4 °F /  13.6 °C 54.4 °F /  12.4 °C 30.23in /  1023.6hPa SW 4.5mph /  7.2km/h 5mph /  8km/h 93% 0.00in /  0mm 178 W/m2
11:39 56.6 °F /  13.7 °C 54.2 °F /  12.3 °C 30.23in /  1023.6hPa SW 4.8mph /  7.7km/h 5mph /  8km/h 91.9% 0.00in /  0mm 171 W/m2
11:44 56.7 °F /  13.7 °C 54 °F /  12.2 °C 30.23in /  1023.6hPa SW 5.4mph /  8.7km/h 6mph /  9.7km/h 90.8% 0.00in /  0mm 175 W/m2
11:49 56.7 °F /  13.7 °C 54 °F /  12.2 °C 30.23in /  1023.6hPa SW 5.3mph /  8.5km/h 6mph /  9.7km/h 90.6% 0.00in /  0mm 174 W/m2
11:54 56.8 °F /  13.8 °C 54.1 °F /  12.3 °C 30.23in /  1023.6hPa SW 4.5mph /  7.2km/h 7mph /  11.3km/h 90.5% 0.00in /  0mm 174 W/m2
11:59 56.8 °F /  13.8 °C 54 °F /  12.2 °C 30.22in /  1023.2hPa SW 4.4mph /  7.1km/h 5mph /  8km/h 90.3% 0.00in /  0mm 174 W/m2
12:04 57 °F /  13.9 °C 54.1 °F /  12.3 °C 30.22in /  1023.2hPa SW 4.1mph /  6.6km/h 5mph /  8km/h 90% 0.00in /  0mm 176 W/m2
12:09 57.1 °F /  13.9 °C 54.2 °F /  12.3 °C 30.22in /  1023.2hPa SSW 3.9mph /  6.3km/h 5mph /  8km/h 90% 0.00in /  0mm 166 W/m2
12:14 57.2 °F /  14 °C 54.3 °F /  12.4 °C 30.22in /  1023.2hPa SSW 3.7mph /  6km/h 5mph /  8km/h 90% 0.00in /  0mm 153 W/m2
12:19 57.2 °F /  14 °C 54.3 °F /  12.4 °C 30.22in /  1023.2hPa SW 4.5mph /  7.2km/h 5mph /  8km/h 90% 0.00in /  0mm 162 W/m2
12:24 57.4 °F /  14.1 °C 54.5 °F /  12.5 °C 30.22in /  1023.2hPa SW 3.8mph /  6.1km/h 5mph /  8km/h 90% 0.00in /  0mm 168 W/m2
12:29 57.4 °F /  14.1 °C 54.3 °F /  12.4 °C 30.22in /  1023.2hPa SW 4.7mph /  7.6km/h 5mph /  8km/h 89.3% 0.00in /  0mm 168 W/m2
12:34 57.5 °F /  14.2 °C 54.2 °F /  12.3 °C 30.22in /  1023.2hPa SW 5.7mph /  9.2km/h 6mph /  9.7km/h 89% 0.00in /  0mm 164 W/m2
12:39 57.4 °F /  14.1 °C 54.2 °F /  12.3 °C 30.22in /  1023.2hPa SW 6.3mph /  10.1km/h 7mph /  11.3km/h 89% 0.00in /  0mm 178 W/m2
12:44 57.4 °F /  14.1 °C 54.2 °F /  12.3 °C 30.22in /  1023.2hPa SW 5.9mph /  9.5km/h 7mph /  11.3km/h 89% 0.00in /  0mm 180 W/m2
12:49 57.5 °F /  14.2 °C 54.3 °F /  12.4 °C 30.22in /  1023.2hPa SW 4.9mph /  7.9km/h 7mph /  11.3km/h 89% 0.00in /  0mm 168 W/m2
12:54 57.6 °F /  14.2 °C 54.1 °F /  12.3 °C 30.21in /  1022.9hPa SW 5.6mph /  9km/h 7mph /  11.3km/h 88.4% 0.00in /  0mm 170 W/m2
12:59 57.6 °F /  14.2 °C 54 °F /  12.2 °C 30.21in /  1022.9hPa SW 5mph /  8km/h 7mph /  11.3km/h 88% 0.00in /  0mm 168 W/m2
13:04 57.7 °F /  14.3 °C 54.1 °F /  12.3 °C 30.21in /  1022.9hPa SW 5.6mph /  9km/h 6mph /  9.7km/h 88% 0.00in /  0mm 164 W/m2
13:09 57.7 °F /  14.3 °C 54.2 °F /  12.3 °C 30.21in /  1022.9hPa SW 5.6mph /  9km/h 6mph /  9.7km/h 88% 0.00in /  0mm 178 W/m2
13:14 57.7 °F /  14.3 °C 54.2 °F /  12.3 °C 30.21in /  1022.9hPa SW 5.2mph /  8.4km/h 6mph /  9.7km/h 88% 0.00in /  0mm 188 W/m2
13:19 57.9 °F /  14.4 °C 54.2 °F /  12.3 °C 30.21in /  1022.9hPa SW 6.5mph /  10.5km/h 7mph /  11.3km/h 87.3% 0.00in /  0mm 184 W/m2
13:24 57.9 °F /  14.4 °C 53.8 °F /  12.1 °C 30.21in /  1022.9hPa SW 5.1mph /  8.2km/h 7mph /  11.3km/h 86% 0.00in /  0mm 171 W/m2
13:29 58.1 °F /  14.5 °C 53.9 °F /  12.2 °C 30.21in /  1022.9hPa SW 4.6mph /  7.4km/h 6mph /  9.7km/h 86% 0.00in /  0mm 171 W/m2
13:34 58.1 °F /  14.5 °C 53.9 °F /  12.2 °C 30.21in /  1022.9hPa SW 4.8mph /  7.7km/h 5mph /  8km/h 86% 0.00in /  0mm 155 W/m2
13:39 58.1 °F /  14.5 °C 53.9 °F /  12.2 °C 30.21in /  1022.9hPa SW 5.7mph /  9.2km/h 6mph /  9.7km/h 86% 0.00in /  0mm 150 W/m2
13:44 58.2 °F /  14.6 °C 53.8 °F /  12.1 °C 30.21in /  1022.9hPa SW 5.6mph /  9km/h 6mph /  9.7km/h 85.3% 0.00in /  0mm 147 W/m2
13:49 58.2 °F /  14.6 °C 53.7 °F /  12.1 °C 30.21in /  1022.9hPa SW 5.1mph /  8.2km/h 6mph /  9.7km/h 85% 0.00in /  0mm 142 W/m2
13:54 58.2 °F /  14.6 °C 53.7 °F /  12.1 °C 30.21in /  1022.9hPa SW 5.5mph /  8.9km/h 6mph /  9.7km/h 85% 0.00in /  0mm 132 W/m2
13:59 58.3 °F /  14.6 °C 53.8 °F /  12.1 °C 30.21in /  1022.9hPa SW 5.4mph /  8.7km/h 6mph /  9.7km/h 85% 0.00in /  0mm 137 W/m2
14:04 58.3 °F /  14.6 °C 53.8 °F /  12.1 °C 30.21in /  1022.9hPa SW 4.9mph /  7.9km/h 6mph /  9.7km/h 85% 0.00in /  0mm 137 W/m2
14:09 58.3 °F /  14.6 °C 53.8 °F /  12.1 °C 30.21in /  1022.9hPa SW 5.4mph /  8.7km/h 6mph /  9.7km/h 84.9% 0.00in /  0mm 119 W/m2
14:14 58.3 °F /  14.6 °C 53.6 °F /  12 °C 30.21in /  1022.9hPa SW 5.5mph /  8.9km/h 6mph /  9.7km/h 84.3% 0.00in /  0mm 109 W/m2
14:19 58.3 °F /  14.6 °C 53.7 °F /  12.1 °C 30.21in /  1022.9hPa SW 4.9mph /  7.9km/h 6mph /  9.7km/h 84.7% 0.00in /  0mm 98 W/m2
14:24 58.3 °F /  14.6 °C 53.5 °F /  11.9 °C 30.21in /  1022.9hPa SW 5.2mph /  8.4km/h 6mph /  9.7km/h 84% 0.00in /  0mm 93 W/m2
14:29 58.1 °F /  14.5 °C 53.3 °F /  11.8 °C 30.21in /  1022.9hPa SW 5.3mph /  8.5km/h 6mph /  9.7km/h 84% 0.00in /  0mm 93 W/m2
14:34 58.1 °F /  14.5 °C 53.3 °F /  11.8 °C 30.21in /  1022.9hPa SW 5mph /  8km/h 6mph /  9.7km/h 84% 0.00in /  0mm 85 W/m2
14:39 58.1 °F /  14.5 °C 53.3 °F /  11.8 °C 30.21in /  1022.9hPa SW 5mph /  8km/h 6mph /  9.7km/h 84% 0.00in /  0mm 73 W/m2
14:44 58.1 °F /  14.5 °C 53.3 °F /  11.8 °C 30.21in /  1022.9hPa SW 5mph /  8km/h 6mph /  9.7km/h 84% 0.00in /  0mm 63 W/m2
14:49 58 °F /  14.4 °C 53.2 °F /  11.8 °C 30.21in /  1022.9hPa SW 5.1mph /  8.2km/h 6mph /  9.7km/h 84% 0.00in /  0mm 53 W/m2
14:54 57.9 °F /  14.4 °C 53.1 °F /  11.7 °C 30.21in /  1022.9hPa SW 4.6mph /  7.4km/h 6mph /  9.7km/h 84% 0.00in /  0mm 45 W/m2
14:59 57.9 °F /  14.4 °C 53.1 °F /  11.7 °C 30.21in /  1022.9hPa SW 6.9mph /  11.1km/h 5.1mph /  8.2km/h 84% 0.00in /  0mm 42 W/m2
15:04 57.7 °F /  14.3 °C 53 °F /  11.7 °C 30.21in /  1022.9hPa SW 5.1mph /  8.2km/h 9mph /  14.5km/h 84.4% 0.00in /  0mm 39 W/m2
15:09 57.7 °F /  14.3 °C 53.1 °F /  11.7 °C 30.21in /  1022.9hPa SW 4.5mph /  7.2km/h 6mph /  9.7km/h 84.7% 0.00in /  0mm 38 W/m2
15:14 57.6 °F /  14.2 °C 53.2 °F /  11.8 °C 30.21in /  1022.9hPa SW 4.5mph /  7.2km/h 5mph /  8km/h 85% 0.00in /  0mm 35 W/m2
15:19 57.6 °F /  14.2 °C 53.1 °F /  11.7 °C 30.21in /  1022.9hPa SW 4.2mph /  6.8km/h 5mph /  8km/h 85% 0.00in /  0mm 32 W/m2
15:24 57.6 °F /  14.2 °C 53.1 °F /  11.7 °C 30.21in /  1022.9hPa SW 3.9mph /  6.3km/h 5mph /  8km/h 85% 0.00in /  0mm 30 W/m2
15:29 57.6 °F /  14.2 °C 53.1 °F /  11.7 °C 30.21in /  1022.9hPa SW 2.4mph /  3.9km/h 5mph /  8km/h 85% 0.00in /  0mm 30 W/m2
15:34 57.5 °F /  14.2 °C 53 °F /  11.7 °C 30.21in /  1022.9hPa SW 2.9mph /  4.7km/h 3mph /  4.8km/h 85% 0.00in /  0mm 26 W/m2
15:39 57.4 °F /  14.1 °C 52.9 °F /  11.6 °C 30.21in /  1022.9hPa SSW 2.8mph /  4.5km/h 3mph /  4.8km/h 85% 0.00in /  0mm 25 W/m2
15:44 57.4 °F /  14.1 °C 52.9 °F /  11.6 °C 30.21in /  1022.9hPa SSW 2.2mph /  3.5km/h 3mph /  4.8km/h 85% 0.00in /  0mm 24 W/m2
15:49 57.4 °F /  14.1 °C 52.9 °F /  11.6 °C 30.21in /  1022.9hPa South 2.8mph /  4.5km/h 2mph /  3.2km/h 85% 0.00in /  0mm 20 W/m2
15:54 57.4 °F /  14.1 °C 52.9 °F /  11.6 °C 30.20in /  1022.6hPa SSW 2.9mph /  4.7km/h 3mph /  4.8km/h 85% 0.00in /  0mm 15 W/m2
15:59 57.2 °F /  14 °C 52.7 °F /  11.5 °C 30.20in /  1022.6hPa SW 3.5mph /  5.6km/h 3.1mph /  5km/h 85% 0.00in /  0mm 11 W/m2
16:04 57.1 °F /  13.9 °C 52.7 °F /  11.5 °C 30.20in /  1022.6hPa WSW 4mph /  6.4km/h 4mph /  6.4km/h 85% 0.00in /  0mm 8 W/m2
16:09 57 °F /  13.9 °C 52.7 °F /  11.5 °C 30.20in /  1022.6hPa WSW 3.5mph /  5.6km/h 5mph /  8km/h 85.4% 0.00in /  0mm 5 W/m2
16:14 56.9 °F /  13.8 °C 52.6 °F /  11.4 °C 30.20in /  1022.6hPa WSW 3.5mph /  5.6km/h 4mph /  6.4km/h 85.5% 0.00in /  0mm 4 W/m2
16:19 56.8 °F /  13.8 °C 52.7 °F /  11.5 °C 30.20in /  1022.6hPa SW 2.9mph /  4.7km/h 4mph /  6.4km/h 86% 0.00in /  0mm 2 W/m2
16:24 56.8 °F /  13.8 °C 52.6 °F /  11.4 °C 30.20in /  1022.6hPa SW 2.3mph /  3.7km/h 3mph /  4.8km/h 86% 0.00in /  0mm 1 W/m2
16:29 56.7 °F /  13.7 °C 52.5 °F /  11.4 °C 30.20in /  1022.6hPa WSW 2.9mph /  4.7km/h 3mph /  4.8km/h 86% 0.00in /  0mm 0 W/m2
16:34 56.6 °F /  13.7 °C 52.3 °F /  11.3 °C 30.20in /  1022.6hPa WSW 3mph /  4.8km/h 3mph /  4.8km/h 86% 0.00in /  0mm 0 W/m2
16:39 56.5 °F /  13.6 °C 52.3 °F /  11.3 °C 30.20in /  1022.6hPa WSW 3.4mph /  5.5km/h 3mph /  4.8km/h 86% 0.00in /  0mm 0 W/m2
16:44 56.3 °F /  13.5 °C 52.2 °F /  11.2 °C 30.20in /  1022.6hPa West 3.4mph /  5.5km/h 3mph /  4.8km/h 86% 0.00in /  0mm 0 W/m2
16:49 56.2 °F /  13.4 °C 52.1 °F /  11.2 °C 30.20in /  1022.6hPa West 3.3mph /  5.3km/h 4mph /  6.4km/h 86% 0.00in /  0mm 0 W/m2
16:54 56.1 °F /  13.4 °C 52 °F /  11.1 °C 30.20in /  1022.6hPa West 3mph /  4.8km/h 4mph /  6.4km/h 86% 0.00in /  0mm 0 W/m2
16:59 56 °F /  13.3 °C 52 °F /  11.1 °C 30.20in /  1022.6hPa WSW 3.6mph /  5.8km/h 4mph /  6.4km/h 86.4% 0.00in /  0mm 0 W/m2
17:04 55.9 °F /  13.3 °C 51.9 °F /  11.1 °C 30.20in /  1022.6hPa WSW 2.2mph /  3.5km/h 4mph /  6.4km/h 86.4% 0.00in /  0mm 0 W/m2
17:09 55.9 °F /  13.3 °C 52.4 °F /  11.3 °C 30.20in /  1022.6hPa West 2.2mph /  3.5km/h 2mph /  3.2km/h 88% 0.00in /  0mm 0 W/m2
17:14 55.8 °F /  13.2 °C 52.3 °F /  11.3 °C 30.21in /  1022.9hPa West 1.7mph /  2.7km/h 2mph /  3.2km/h 88% 0.00in /  0mm 0 W/m2
17:19 55.8 °F /  13.2 °C 52.3 °F /  11.3 °C 30.21in /  1022.9hPa West 1.2mph /  1.9km/h 2mph /  3.2km/h 88% 0.00in /  0mm 0 W/m2
17:24 55.8 °F /  13.2 °C 52.3 °F /  11.3 °C 30.21in /  1022.9hPa West 1.5mph /  2.4km/h 1.3mph /  2.1km/h 88% 0.00in /  0mm 0 W/m2
17:29 55.6 °F /  13.1 °C 52.1 °F /  11.2 °C 30.20in /  1022.6hPa WSW 2.2mph /  3.5km/h 2mph /  3.2km/h 88% 0.00in /  0mm 0 W/m2
17:34 55.6 °F /  13.1 °C 52.2 °F /  11.2 °C 30.21in /  1022.9hPa WSW 2.4mph /  3.9km/h 2mph /  3.2km/h 88.2% 0.00in /  0mm 0 W/m2
17:39 55.4 °F /  13 °C 52.2 °F /  11.2 °C 30.21in /  1022.9hPa WSW 1.5mph /  2.4km/h 2mph /  3.2km/h 89% 0.00in /  0mm 0 W/m2
17:44 55.4 °F /  13 °C 52.2 °F /  11.2 °C 30.21in /  1022.9hPa West 1.1mph /  1.8km/h 1mph /  1.6km/h 89% 0.00in /  0mm 0 W/m2
17:49 55.3 °F /  12.9 °C 52.1 °F /  11.2 °C 30.21in /  1022.9hPa West 1.1mph /  1.8km/h 1mph /  1.6km/h 89% 0.00in /  0mm 0 W/m2
17:54 55.2 °F /  12.9 °C 52 °F /  11.1 °C 30.21in /  1022.9hPa West 1.6mph /  2.6km/h 1mph /  1.6km/h 89% 0.00in /  0mm 0 W/m2
17:59 55.2 °F /  12.9 °C 52.2 °F /  11.2 °C 30.21in /  1022.9hPa West 1.6mph /  2.6km/h 2mph /  3.2km/h 89.8% 0.00in /  0mm 0 W/m2
18:04 55.2 °F /  12.9 °C 52.3 °F /  11.3 °C 30.21in /  1022.9hPa West 1.7mph /  2.7km/h 2mph /  3.2km/h 90% 0.00in /  0mm 0 W/m2
18:09 55.1 °F /  12.8 °C 52.3 °F /  11.3 °C 30.21in /  1022.9hPa West 2.1mph /  3.4km/h 2mph /  3.2km/h 90% 0.00in /  0mm 0 W/m2
18:14 55 °F /  12.8 °C 52.2 °F /  11.2 °C 30.21in /  1022.9hPa West 0.4mph /  0.6km/h 2mph /  3.2km/h 90% 0.00in /  0mm 0 W/m2
18:19 55 °F /  12.8 °C 52.2 °F /  11.2 °C 30.21in /  1022.9hPa Calm   1mph /  1.6km/h 90% 0.00in /  0mm 0 W/m2
18:24 55 °F /  12.8 °C 52.2 °F /  11.2 °C 30.21in /  1022.9hPa Calm     90% 0.00in /  0mm 0 W/m2
18:29 54.9 °F /  12.7 °C 52.1 °F /  11.2 °C 30.21in /  1022.9hPa WSW 1.3mph /  2.1km/h 1.3mph /  2.1km/h 90% 0.00in /  0mm 0 W/m2
18:34 55 °F /  12.8 °C 52.2 °F /  11.2 °C 30.21in /  1022.9hPa South 2.5mph /  4km/h 2.5mph /  4km/h 90% 0.00in /  0mm 0 W/m2
18:39 54.9 °F /  12.7 °C 52.1 °F /  11.2 °C 30.21in /  1022.9hPa ENE 2.2mph /  3.5km/h 3mph /  4.8km/h 90% 0.00in /  0mm 0 W/m2
18:44 54.8 °F /  12.7 °C 51.9 °F /  11.1 °C 30.21in /  1022.9hPa NE 3.4mph /  5.5km/h 3.1mph /  5km/h 90% 0.00in /  0mm 0 W/m2
18:49 54.6 °F /  12.6 °C 51.5 °F /  10.8 °C 30.21in /  1022.9hPa ENE 3.8mph /  6.1km/h 5mph /  8km/h 89.5% 0.00in /  0mm 0 W/m2
18:54 54.3 °F /  12.4 °C 51.4 °F /  10.8 °C 30.21in /  1022.9hPa ESE 3.1mph /  5km/h 5mph /  8km/h 89.9% 0.00in /  0mm 0 W/m2
18:59 54.2 °F /  12.3 °C 51.3 °F /  10.7 °C 30.21in /  1022.9hPa ESE 2.2mph /  3.5km/h 4mph /  6.4km/h 90% 0.00in /  0mm 0 W/m2
19:04 54 °F /  12.2 °C 51.1 °F /  10.6 °C 30.21in /  1022.9hPa ESE 1.8mph /  2.9km/h 2mph /  3.2km/h 90% 0.00in /  0mm 0 W/m2
19:09 53.7 °F /  12.1 °C 50.8 °F /  10.4 °C 30.21in /  1022.9hPa SSE 3mph /  4.8km/h 2.7mph /  4.3km/h 90% 0.00in /  0mm 0 W/m2
19:14 53.3 °F /  11.8 °C 50.6 °F /  10.3 °C 30.21in /  1022.9hPa SE 3.2mph /  5.1km/h 4mph /  6.4km/h 90.2% 0.00in /  0mm 0 W/m2
19:19 53.2 °F /  11.8 °C 50.7 °F /  10.4 °C 30.21in /  1022.9hPa ESE 5.1mph /  8.2km/h 5mph /  8km/h 91% 0.00in /  0mm 0 W/m2
19:24 53.2 °F /  11.8 °C 50.7 °F /  10.4 °C 30.21in /  1022.9hPa SE 5.6mph /  9km/h 7mph /  11.3km/h 91% 0.00in /  0mm 0 W/m2
Knjazevac, Serbia
Compliments of Weather Underground - 2 mb